sensor_id;sensor_type;location;lat;lon;timestamp;P1;durP1;ratioP1;P2;durP2;ratioP2
73266;SDS011;61495;53.400;7.608;2022-10-30T00:00:04;13.25;;;7.35;;
73266;SDS011;61495;53.400;7.608;2022-10-30T00:02:30;18.88;;;8.32;;
73266;SDS011;61495;53.400;7.608;2022-10-30T00:04:55;15.70;;;8.25;;
73266;SDS011;61495;53.400;7.608;2022-10-30T00:07:21;14.10;;;7.40;;
73266;SDS011;61495;53.400;7.608;2022-10-30T00:09:46;16.52;;;7.75;;
73266;SDS011;61495;53.400;7.608;2022-10-30T00:12:12;15.40;;;6.88;;
73266;SDS011;61495;53.400;7.608;2022-10-30T00:14:37;13.68;;;7.18;;
73266;SDS011;61495;53.400;7.608;2022-10-30T00:17:03;14.27;;;8.00;;
73266;SDS011;61495;53.400;7.608;2022-10-30T00:19:28;16.30;;;7.78;;
73266;SDS011;61495;53.400;7.608;2022-10-30T00:21:54;15.40;;;8.70;;
73266;SDS011;61495;53.400;7.608;2022-10-30T00:24:26;14.90;;;7.53;;
73266;SDS011;61495;53.400;7.608;2022-10-30T00:26:52;16.70;;;6.93;;
73266;SDS011;61495;53.400;7.608;2022-10-30T00:29:17;14.25;;;7.28;;
73266;SDS011;61495;53.400;7.608;2022-10-30T00:31:42;14.15;;;6.13;;
73266;SDS011;61495;53.400;7.608;2022-10-30T00:34:08;17.63;;;7.15;;
73266;SDS011;61495;53.400;7.608;2022-10-30T00:36:33;18.55;;;7.97;;
73266;SDS011;61495;53.400;7.608;2022-10-30T00:38:59;15.57;;;7.25;;
73266;SDS011;61495;53.400;7.608;2022-10-30T00:41:24;18.75;;;7.65;;
73266;SDS011;61495;53.400;7.608;2022-10-30T00:43:50;14.65;;;6.45;;
73266;SDS011;61495;53.400;7.608;2022-10-30T00:46:20;16.20;;;7.00;;
73266;SDS011;61495;53.400;7.608;2022-10-30T00:48:55;12.75;;;7.32;;
73266;SDS011;61495;53.400;7.608;2022-10-30T00:51:24;16.13;;;7.03;;
73266;SDS011;61495;53.400;7.608;2022-10-30T00:53:53;12.90;;;7.53;;
73266;SDS011;61495;53.400;7.608;2022-10-30T00:56:28;13.15;;;6.53;;
73266;SDS011;61495;53.400;7.608;2022-10-30T00:58:56;14.02;;;7.40;;
73266;SDS011;61495;53.400;7.608;2022-10-30T01:01:25;18.92;;;8.25;;
73266;SDS011;61495;53.400;7.608;2022-10-30T01:03:54;14.77;;;7.20;;
73266;SDS011;61495;53.400;7.608;2022-10-30T01:06:22;16.88;;;7.35;;
73266;SDS011;61495;53.400;7.608;2022-10-30T01:08:48;14.73;;;7.30;;
73266;SDS011;61495;53.400;7.608;2022-10-30T01:11:15;18.73;;;7.93;;
73266;SDS011;61495;53.400;7.608;2022-10-30T01:13:41;15.23;;;7.63;;
73266;SDS011;61495;53.400;7.608;2022-10-30T01:16:19;12.02;;;6.63;;
73266;SDS011;61495;53.400;7.608;2022-10-30T01:27:04;14.57;;;6.30;;
73266;SDS011;61495;53.400;7.608;2022-10-30T01:30:21;12.18;;;6.75;;
73266;SDS011;61495;53.400;7.608;2022-10-30T01:32:43;11.95;;;7.07;;
73266;SDS011;61495;53.400;7.608;2022-10-30T01:40:33;13.38;;;7.10;;
73266;SDS011;61495;53.400;7.608;2022-10-30T01:42:58;19.95;;;7.32;;
73266;SDS011;61495;53.400;7.608;2022-10-30T01:53:55;14.68;;;6.93;;
73266;SDS011;61495;53.400;7.608;2022-10-30T01:56:27;15.10;;;7.25;;
73266;SDS011;61495;53.400;7.608;2022-10-30T01:59:01;13.23;;;6.68;;
73266;SDS011;61495;53.400;7.608;2022-10-30T02:01:50;14.23;;;7.30;;
73266;SDS011;61495;53.400;7.608;2022-10-30T02:04:16;14.43;;;7.75;;
73266;SDS011;61495;53.400;7.608;2022-10-30T02:06:41;19.52;;;7.78;;
73266;SDS011;61495;53.400;7.608;2022-10-30T02:09:07;12.68;;;6.90;;
73266;SDS011;61495;53.400;7.608;2022-10-30T02:11:33;14.35;;;6.18;;
73266;SDS011;61495;53.400;7.608;2022-10-30T02:14:03;15.68;;;7.30;;
73266;SDS011;61495;53.400;7.608;2022-10-30T02:16:32;13.75;;;6.50;;
73266;SDS011;61495;53.400;7.608;2022-10-30T02:19:01;14.25;;;6.25;;
73266;SDS011;61495;53.400;7.608;2022-10-30T02:21:27;16.10;;;6.78;;
73266;SDS011;61495;53.400;7.608;2022-10-30T02:23:53;13.25;;;6.88;;
73266;SDS011;61495;53.400;7.608;2022-10-30T02:26:23;14.88;;;7.13;;
73266;SDS011;61495;53.400;7.608;2022-10-30T02:28:48;14.68;;;5.95;;
73266;SDS011;61495;53.400;7.608;2022-10-30T02:31:14;15.18;;;7.45;;
73266;SDS011;61495;53.400;7.608;2022-10-30T02:33:43;13.40;;;6.80;;
73266;SDS011;61495;53.400;7.608;2022-10-30T02:36:10;12.68;;;7.30;;
73266;SDS011;61495;53.400;7.608;2022-10-30T02:38:35;14.73;;;7.03;;
73266;SDS011;61495;53.400;7.608;2022-10-30T02:41:01;12.23;;;6.70;;
73266;SDS011;61495;53.400;7.608;2022-10-30T02:43:26;12.43;;;6.50;;
73266;SDS011;61495;53.400;7.608;2022-10-30T02:45:52;14.77;;;6.65;;
73266;SDS011;61495;53.400;7.608;2022-10-30T02:48:17;16.23;;;6.88;;
73266;SDS011;61495;53.400;7.608;2022-10-30T02:50:43;12.18;;;6.25;;
73266;SDS011;61495;53.400;7.608;2022-10-30T02:53:08;13.73;;;7.00;;
73266;SDS011;61495;53.400;7.608;2022-10-30T02:55:43;14.55;;;6.88;;
73266;SDS011;61495;53.400;7.608;2022-10-30T02:58:08;12.35;;;6.65;;
73266;SDS011;61495;53.400;7.608;2022-10-30T03:00:34;12.80;;;6.55;;
73266;SDS011;61495;53.400;7.608;2022-10-30T03:02:59;11.75;;;6.38;;
73266;SDS011;61495;53.400;7.608;2022-10-30T03:05:25;15.73;;;7.45;;
73266;SDS011;61495;53.400;7.608;2022-10-30T03:07:50;13.23;;;6.25;;
73266;SDS011;61495;53.400;7.608;2022-10-30T03:10:16;15.63;;;7.03;;
73266;SDS011;61495;53.400;7.608;2022-10-30T03:12:42;15.93;;;7.70;;
73266;SDS011;61495;53.400;7.608;2022-10-30T03:15:08;12.45;;;6.22;;
73266;SDS011;61495;53.400;7.608;2022-10-30T03:17:34;13.13;;;6.57;;
73266;SDS011;61495;53.400;7.608;2022-10-30T03:19:59;15.60;;;7.35;;
73266;SDS011;61495;53.400;7.608;2022-10-30T03:22:25;13.18;;;6.78;;
73266;SDS011;61495;53.400;7.608;2022-10-30T03:24:57;14.13;;;6.72;;
73266;SDS011;61495;53.400;7.608;2022-10-30T03:27:23;14.50;;;6.80;;
73266;SDS011;61495;53.400;7.608;2022-10-30T03:29:48;17.83;;;7.22;;
73266;SDS011;61495;53.400;7.608;2022-10-30T03:32:15;15.85;;;7.15;;
73266;SDS011;61495;53.400;7.608;2022-10-30T03:34:40;15.45;;;7.32;;
73266;SDS011;61495;53.400;7.608;2022-10-30T03:37:06;15.30;;;6.72;;
73266;SDS011;61495;53.400;7.608;2022-10-30T03:39:33;16.58;;;7.57;;
73266;SDS011;61495;53.400;7.608;2022-10-30T03:41:59;16.67;;;6.72;;
73266;SDS011;61495;53.400;7.608;2022-10-30T03:44:24;14.27;;;6.85;;
73266;SDS011;61495;53.400;7.608;2022-10-30T03:46:50;12.95;;;6.07;;
73266;SDS011;61495;53.400;7.608;2022-10-30T03:49:15;13.57;;;6.35;;
73266;SDS011;61495;53.400;7.608;2022-10-30T03:51:41;15.60;;;7.57;;
73266;SDS011;61495;53.400;7.608;2022-10-30T03:54:09;14.45;;;6.80;;
73266;SDS011;61495;53.400;7.608;2022-10-30T03:56:35;14.50;;;7.38;;
73266;SDS011;61495;53.400;7.608;2022-10-30T03:59:00;14.90;;;6.45;;
73266;SDS011;61495;53.400;7.608;2022-10-30T04:01:26;17.45;;;7.53;;
73266;SDS011;61495;53.400;7.608;2022-10-30T04:03:52;15.75;;;7.60;;
73266;SDS011;61495;53.400;7.608;2022-10-30T04:06:17;13.18;;;6.45;;
73266;SDS011;61495;53.400;7.608;2022-10-30T04:08:43;12.55;;;6.18;;
73266;SDS011;61495;53.400;7.608;2022-10-30T04:11:09;16.25;;;6.90;;
73266;SDS011;61495;53.400;7.608;2022-10-30T04:13:35;11.82;;;6.10;;
73266;SDS011;61495;53.400;7.608;2022-10-30T04:16:00;15.43;;;8.15;;
73266;SDS011;61495;53.400;7.608;2022-10-30T04:18:26;16.73;;;6.80;;
73266;SDS011;61495;53.400;7.608;2022-10-30T04:20:51;13.15;;;6.70;;
73266;SDS011;61495;53.400;7.608;2022-10-30T04:23:17;16.15;;;6.85;;
73266;SDS011;61495;53.400;7.608;2022-10-30T04:25:44;18.02;;;7.20;;
73266;SDS011;61495;53.400;7.608;2022-10-30T04:28:09;14.18;;;6.20;;
73266;SDS011;61495;53.400;7.608;2022-10-30T04:30:35;17.40;;;6.50;;
73266;SDS011;61495;53.400;7.608;2022-10-30T04:33:02;15.00;;;6.47;;
73266;SDS011;61495;53.400;7.608;2022-10-30T04:35:31;14.43;;;6.70;;
73266;SDS011;61495;53.400;7.608;2022-10-30T04:38:01;16.00;;;6.80;;
73266;SDS011;61495;53.400;7.608;2022-10-30T04:40:33;12.48;;;6.30;;
73266;SDS011;61495;53.400;7.608;2022-10-30T04:43:00;15.93;;;6.65;;
73266;SDS011;61495;53.400;7.608;2022-10-30T04:45:27;18.25;;;7.13;;
73266;SDS011;61495;53.400;7.608;2022-10-30T04:47:54;14.63;;;7.13;;
73266;SDS011;61495;53.400;7.608;2022-10-30T04:50:24;13.13;;;6.80;;
73266;SDS011;61495;53.400;7.608;2022-10-30T04:52:57;14.95;;;6.55;;
73266;SDS011;61495;53.400;7.608;2022-10-30T04:55:32;15.00;;;6.82;;
73266;SDS011;61495;53.400;7.608;2022-10-30T05:00:24;13.40;;;7.55;;
73266;SDS011;61495;53.400;7.608;2022-10-30T05:02:50;13.82;;;7.28;;
73266;SDS011;61495;53.400;7.608;2022-10-30T05:05:16;16.25;;;7.03;;
73266;SDS011;61495;53.400;7.608;2022-10-30T05:07:41;14.18;;;6.53;;
73266;SDS011;61495;53.400;7.608;2022-10-30T05:10:10;14.55;;;7.40;;
73266;SDS011;61495;53.400;7.608;2022-10-30T05:15:04;20.13;;;7.63;;
73266;SDS011;61495;53.400;7.608;2022-10-30T05:17:29;13.82;;;7.35;;
73266;SDS011;61495;53.400;7.608;2022-10-30T05:19:55;16.52;;;7.25;;
73266;SDS011;61495;53.400;7.608;2022-10-30T05:22:20;14.80;;;7.80;;
73266;SDS011;61495;53.400;7.608;2022-10-30T05:24:46;14.50;;;7.20;;
73266;SDS011;61495;53.400;7.608;2022-10-30T05:27:11;16.15;;;7.20;;
73266;SDS011;61495;53.400;7.608;2022-10-30T05:29:37;10.75;;;6.28;;
73266;SDS011;61495;53.400;7.608;2022-10-30T05:32:02;17.95;;;7.18;;
73266;SDS011;61495;53.400;7.608;2022-10-30T05:34:28;12.88;;;8.07;;
73266;SDS011;61495;53.400;7.608;2022-10-30T05:36:53;11.50;;;5.95;;
73266;SDS011;61495;53.400;7.608;2022-10-30T05:39:19;14.20;;;7.45;;
73266;SDS011;61495;53.400;7.608;2022-10-30T05:41:44;12.60;;;6.75;;
73266;SDS011;61495;53.400;7.608;2022-10-30T05:44:09;14.45;;;7.25;;
73266;SDS011;61495;53.400;7.608;2022-10-30T05:46:35;16.77;;;7.90;;
73266;SDS011;61495;53.400;7.608;2022-10-30T05:49:00;16.65;;;7.47;;
73266;SDS011;61495;53.400;7.608;2022-10-30T05:51:26;19.40;;;8.02;;
73266;SDS011;61495;53.400;7.608;2022-10-30T05:53:51;18.35;;;8.05;;
73266;SDS011;61495;53.400;7.608;2022-10-30T05:56:23;14.20;;;6.40;;
73266;SDS011;61495;53.400;7.608;2022-10-30T05:58:49;14.93;;;7.22;;
73266;SDS011;61495;53.400;7.608;2022-10-30T06:01:15;14.77;;;6.85;;
73266;SDS011;61495;53.400;7.608;2022-10-30T06:03:40;20.95;;;7.75;;
73266;SDS011;61495;53.400;7.608;2022-10-30T06:06:06;20.63;;;8.73;;
73266;SDS011;61495;53.400;7.608;2022-10-30T06:08:31;13.90;;;6.93;;
73266;SDS011;61495;53.400;7.608;2022-10-30T06:10:57;20.27;;;7.47;;
73266;SDS011;61495;53.400;7.608;2022-10-30T06:13:22;17.27;;;7.47;;
73266;SDS011;61495;53.400;7.608;2022-10-30T06:15:48;15.07;;;6.85;;
73266;SDS011;61495;53.400;7.608;2022-10-30T06:18:13;17.85;;;8.80;;
73266;SDS011;61495;53.400;7.608;2022-10-30T06:20:39;17.52;;;7.78;;
73266;SDS011;61495;53.400;7.608;2022-10-30T06:23:05;17.75;;;6.60;;
73266;SDS011;61495;53.400;7.608;2022-10-30T06:25:33;14.88;;;7.53;;
73266;SDS011;61495;53.400;7.608;2022-10-30T06:27:59;17.27;;;6.90;;
73266;SDS011;61495;53.400;7.608;2022-10-30T06:30:26;16.27;;;6.40;;
73266;SDS011;61495;53.400;7.608;2022-10-30T06:32:58;13.48;;;6.53;;
73266;SDS011;61495;53.400;7.608;2022-10-30T06:35:25;15.85;;;7.15;;
73266;SDS011;61495;53.400;7.608;2022-10-30T06:37:51;17.75;;;8.45;;
73266;SDS011;61495;53.400;7.608;2022-10-30T06:40:20;16.38;;;6.90;;
73266;SDS011;61495;53.400;7.608;2022-10-30T06:42:50;13.75;;;6.43;;
73266;SDS011;61495;53.400;7.608;2022-10-30T06:45:18;12.75;;;6.70;;
73266;SDS011;61495;53.400;7.608;2022-10-30T06:47:45;13.90;;;7.43;;
73266;SDS011;61495;53.400;7.608;2022-10-30T06:50:11;18.83;;;7.93;;
73266;SDS011;61495;53.400;7.608;2022-10-30T06:52:38;13.90;;;6.05;;
73266;SDS011;61495;53.400;7.608;2022-10-30T06:55:10;18.83;;;7.72;;
73266;SDS011;61495;53.400;7.608;2022-10-30T06:57:38;14.30;;;6.20;;
73266;SDS011;61495;53.400;7.608;2022-10-30T07:00:05;12.43;;;6.78;;
73266;SDS011;61495;53.400;7.608;2022-10-30T07:02:31;16.08;;;7.05;;
73266;SDS011;61495;53.400;7.608;2022-10-30T07:04:57;15.13;;;7.45;;
73266;SDS011;61495;53.400;7.608;2022-10-30T07:07:23;14.82;;;6.82;;
73266;SDS011;61495;53.400;7.608;2022-10-30T07:09:48;15.20;;;7.45;;
73266;SDS011;61495;53.400;7.608;2022-10-30T07:12:14;15.90;;;7.53;;
73266;SDS011;61495;53.400;7.608;2022-10-30T07:14:40;13.65;;;7.20;;
73266;SDS011;61495;53.400;7.608;2022-10-30T07:17:06;13.10;;;6.82;;
73266;SDS011;61495;53.400;7.608;2022-10-30T07:19:33;13.50;;;8.05;;
73266;SDS011;61495;53.400;7.608;2022-10-30T07:21:59;15.18;;;7.18;;
73266;SDS011;61495;53.400;7.608;2022-10-30T07:24:26;15.98;;;6.55;;
73266;SDS011;61495;53.400;7.608;2022-10-30T07:26:51;14.50;;;6.95;;
73266;SDS011;61495;53.400;7.608;2022-10-30T07:29:17;15.23;;;7.03;;
73266;SDS011;61495;53.400;7.608;2022-10-30T07:31:44;17.08;;;7.93;;
73266;SDS011;61495;53.400;7.608;2022-10-30T07:34:11;20.38;;;7.78;;
73266;SDS011;61495;53.400;7.608;2022-10-30T07:36:36;13.60;;;7.35;;
73266;SDS011;61495;53.400;7.608;2022-10-30T07:39:02;14.20;;;7.40;;
73266;SDS011;61495;53.400;7.608;2022-10-30T07:41:27;13.85;;;7.35;;
73266;SDS011;61495;53.400;7.608;2022-10-30T07:43:53;16.20;;;8.00;;
73266;SDS011;61495;53.400;7.608;2022-10-30T07:46:18;21.55;;;7.45;;
73266;SDS011;61495;53.400;7.608;2022-10-30T07:48:43;16.88;;;8.38;;
73266;SDS011;61495;53.400;7.608;2022-10-30T07:51:09;16.08;;;7.68;;
73266;SDS011;61495;53.400;7.608;2022-10-30T07:53:34;16.13;;;8.43;;
73266;SDS011;61495;53.400;7.608;2022-10-30T07:56:00;18.98;;;8.52;;
73266;SDS011;61495;53.400;7.608;2022-10-30T07:58:26;18.40;;;9.18;;
73266;SDS011;61495;53.400;7.608;2022-10-30T08:00:51;20.52;;;8.57;;
73266;SDS011;61495;53.400;7.608;2022-10-30T08:03:16;16.70;;;9.07;;
73266;SDS011;61495;53.400;7.608;2022-10-30T08:05:42;21.20;;;9.32;;
73266;SDS011;61495;53.400;7.608;2022-10-30T08:08:07;15.70;;;8.65;;
73266;SDS011;61495;53.400;7.608;2022-10-30T08:10:33;21.15;;;8.65;;
73266;SDS011;61495;53.400;7.608;2022-10-30T08:12:59;17.88;;;9.05;;
73266;SDS011;61495;53.400;7.608;2022-10-30T08:15:25;19.02;;;8.95;;
73266;SDS011;61495;53.400;7.608;2022-10-30T08:17:50;17.88;;;9.27;;
73266;SDS011;61495;53.400;7.608;2022-10-30T08:20:17;20.05;;;9.20;;
73266;SDS011;61495;53.400;7.608;2022-10-30T08:22:45;18.00;;;8.38;;
73266;SDS011;61495;53.400;7.608;2022-10-30T08:25:15;22.95;;;10.00;;
73266;SDS011;61495;53.400;7.608;2022-10-30T08:30:30;17.77;;;10.10;;
73266;SDS011;61495;53.400;7.608;2022-10-30T08:32:58;19.08;;;9.43;;
73266;SDS011;61495;53.400;7.608;2022-10-30T08:35:26;16.77;;;8.98;;
73266;SDS011;61495;53.400;7.608;2022-10-30T08:37:55;15.95;;;9.00;;
73266;SDS011;61495;53.400;7.608;2022-10-30T08:40:22;21.98;;;9.38;;
73266;SDS011;61495;53.400;7.608;2022-10-30T08:42:54;18.17;;;9.38;;
73266;SDS011;61495;53.400;7.608;2022-10-30T08:45:21;22.63;;;9.82;;
73266;SDS011;61495;53.400;7.608;2022-10-30T08:47:47;24.70;;;9.82;;
73266;SDS011;61495;53.400;7.608;2022-10-30T08:50:20;21.70;;;9.63;;
73266;SDS011;61495;53.400;7.608;2022-10-30T08:52:46;22.58;;;10.88;;
73266;SDS011;61495;53.400;7.608;2022-10-30T08:55:11;16.33;;;9.00;;
73266;SDS011;61495;53.400;7.608;2022-10-30T08:57:37;19.55;;;8.75;;
73266;SDS011;61495;53.400;7.608;2022-10-30T09:00:03;18.13;;;9.15;;
73266;SDS011;61495;53.400;7.608;2022-10-30T09:02:29;18.20;;;9.10;;
73266;SDS011;61495;53.400;7.608;2022-10-30T09:04:55;20.23;;;9.85;;
73266;SDS011;61495;53.400;7.608;2022-10-30T09:07:20;20.40;;;10.02;;
73266;SDS011;61495;53.400;7.608;2022-10-30T09:09:46;16.60;;;9.32;;
73266;SDS011;61495;53.400;7.608;2022-10-30T09:12:11;18.80;;;10.27;;
73266;SDS011;61495;53.400;7.608;2022-10-30T09:14:37;21.40;;;10.65;;
73266;SDS011;61495;53.400;7.608;2022-10-30T09:17:02;20.10;;;11.02;;
73266;SDS011;61495;53.400;7.608;2022-10-30T09:19:28;21.52;;;9.68;;
73266;SDS011;61495;53.400;7.608;2022-10-30T09:21:53;19.17;;;9.63;;
73266;SDS011;61495;53.400;7.608;2022-10-30T09:24:19;18.20;;;9.30;;
73266;SDS011;61495;53.400;7.608;2022-10-30T09:26:44;24.88;;;9.43;;
73266;SDS011;61495;53.400;7.608;2022-10-30T09:29:10;19.85;;;10.35;;
73266;SDS011;61495;53.400;7.608;2022-10-30T09:31:35;18.05;;;9.90;;
73266;SDS011;61495;53.400;7.608;2022-10-30T09:34:01;18.23;;;8.88;;
73266;SDS011;61495;53.400;7.608;2022-10-30T09:36:26;20.55;;;8.68;;
73266;SDS011;61495;53.400;7.608;2022-10-30T09:38:51;19.25;;;9.20;;
73266;SDS011;61495;53.400;7.608;2022-10-30T09:52:24;14.90;;;7.78;;
73266;SDS011;61495;53.400;7.608;2022-10-30T09:55:00;15.90;;;8.55;;
73266;SDS011;61495;53.400;7.608;2022-10-30T10:00:44;17.30;;;8.68;;
73266;SDS011;61495;53.400;7.608;2022-10-30T10:03:35;17.38;;;8.55;;
73266;SDS011;61495;53.400;7.608;2022-10-30T10:06:16;16.00;;;7.80;;
73266;SDS011;61495;53.400;7.608;2022-10-30T10:08:48;19.42;;;8.98;;
73266;SDS011;61495;53.400;7.608;2022-10-30T10:11:20;17.08;;;7.93;;
73266;SDS011;61495;53.400;7.608;2022-10-30T10:16:42;15.70;;;8.15;;
73266;SDS011;61495;53.400;7.608;2022-10-30T10:19:18;16.48;;;8.30;;
73266;SDS011;61495;53.400;7.608;2022-10-30T10:21:54;17.90;;;9.18;;
73266;SDS011;61495;53.400;7.608;2022-10-30T10:24:31;17.75;;;9.00;;
73266;SDS011;61495;53.400;7.608;2022-10-30T10:38:16;13.60;;;7.78;;
73266;SDS011;61495;53.400;7.608;2022-10-30T10:55:05;16.88;;;8.35;;
73266;SDS011;61495;53.400;7.608;2022-10-30T10:57:38;14.50;;;7.05;;
73266;SDS011;61495;53.400;7.608;2022-10-30T11:00:12;13.18;;;7.97;;
73266;SDS011;61495;53.400;7.608;2022-10-30T11:02:40;11.60;;;6.97;;
73266;SDS011;61495;53.400;7.608;2022-10-30T11:06:11;17.70;;;6.80;;
73266;SDS011;61495;53.400;7.608;2022-10-30T11:08:30;12.75;;;7.00;;
73266;SDS011;61495;53.400;7.608;2022-10-30T11:11:00;14.40;;;7.07;;
73266;SDS011;61495;53.400;7.608;2022-10-30T11:13:33;14.48;;;7.00;;
73266;SDS011;61495;53.400;7.608;2022-10-30T11:18:33;14.25;;;6.85;;
73266;SDS011;61495;53.400;7.608;2022-10-30T11:21:00;13.80;;;7.05;;
73266;SDS011;61495;53.400;7.608;2022-10-30T11:23:37;16.15;;;7.45;;
73266;SDS011;61495;53.400;7.608;2022-10-30T11:31:35;12.57;;;6.25;;
73266;SDS011;61495;53.400;7.608;2022-10-30T11:36:42;12.48;;;6.63;;
73266;SDS011;61495;53.400;7.608;2022-10-30T11:39:09;15.35;;;6.72;;
73266;SDS011;61495;53.400;7.608;2022-10-30T11:42:04;10.02;;;6.32;;
73266;SDS011;61495;53.400;7.608;2022-10-30T11:44:42;15.80;;;6.28;;
73266;SDS011;61495;53.400;7.608;2022-10-30T11:47:10;12.98;;;6.50;;
73266;SDS011;61495;53.400;7.608;2022-10-30T11:49:50;10.60;;;6.60;;
73266;SDS011;61495;53.400;7.608;2022-10-30T11:52:18;12.20;;;6.03;;
73266;SDS011;61495;53.400;7.608;2022-10-30T11:54:52;15.73;;;6.53;;
73266;SDS011;61495;53.400;7.608;2022-10-30T11:59:55;13.77;;;5.80;;
73266;SDS011;61495;53.400;7.608;2022-10-30T12:02:25;12.20;;;6.15;;
73266;SDS011;61495;53.400;7.608;2022-10-30T12:04:52;13.70;;;5.95;;
73266;SDS011;61495;53.400;7.608;2022-10-30T12:09:47;12.05;;;4.40;;
73266;SDS011;61495;53.400;7.608;2022-10-30T12:12:37;12.68;;;5.47;;
73266;SDS011;61495;53.400;7.608;2022-10-30T12:17:37;12.30;;;5.50;;
73266;SDS011;61495;53.400;7.608;2022-10-30T12:20:04;12.60;;;5.38;;
73266;SDS011;61495;53.400;7.608;2022-10-30T12:22:32;9.95;;;5.30;;
73266;SDS011;61495;53.400;7.608;2022-10-30T12:25:03;13.98;;;5.05;;
73266;SDS011;61495;53.400;7.608;2022-10-30T12:27:33;11.32;;;4.60;;
73266;SDS011;61495;53.400;7.608;2022-10-30T12:32:54;10.70;;;5.00;;
73266;SDS011;61495;53.400;7.608;2022-10-30T12:38:02;10.93;;;4.55;;
73266;SDS011;61495;53.400;7.608;2022-10-30T12:40:35;11.05;;;5.68;;
73266;SDS011;61495;53.400;7.608;2022-10-30T12:43:16;10.05;;;4.47;;
73266;SDS011;61495;53.400;7.608;2022-10-30T12:45:48;11.10;;;5.38;;
73266;SDS011;61495;53.400;7.608;2022-10-30T12:48:29;9.55;;;4.60;;
73266;SDS011;61495;53.400;7.608;2022-10-30T12:51:18;10.45;;;5.30;;
73266;SDS011;61495;53.400;7.608;2022-10-30T12:56:43;11.77;;;5.47;;
73266;SDS011;61495;53.400;7.608;2022-10-30T13:04:45;12.60;;;5.65;;
73266;SDS011;61495;53.400;7.608;2022-10-30T13:12:40;12.13;;;4.80;;
73266;SDS011;61495;53.400;7.608;2022-10-30T13:15:19;8.65;;;4.25;;
73266;SDS011;61495;53.400;7.608;2022-10-30T13:17:49;8.27;;;4.38;;
73266;SDS011;61495;53.400;7.608;2022-10-30T13:20:15;9.65;;;3.92;;
73266;SDS011;61495;53.400;7.608;2022-10-30T13:22:51;13.35;;;4.80;;
73266;SDS011;61495;53.400;7.608;2022-10-30T13:26:09;9.90;;;4.15;;
73266;SDS011;61495;53.400;7.608;2022-10-30T13:28:22;11.20;;;4.22;;
73266;SDS011;61495;53.400;7.608;2022-10-30T13:31:00;9.45;;;4.40;;
73266;SDS011;61495;53.400;7.608;2022-10-30T13:38:59;11.73;;;5.05;;
73266;SDS011;61495;53.400;7.608;2022-10-30T13:41:59;11.98;;;5.85;;
73266;SDS011;61495;53.400;7.608;2022-10-30T13:44:41;12.48;;;6.03;;
73266;SDS011;61495;53.400;7.608;2022-10-30T13:53:02;17.55;;;6.03;;
73266;SDS011;61495;53.400;7.608;2022-10-30T13:55:34;12.90;;;5.82;;
73266;SDS011;61495;53.400;7.608;2022-10-30T14:00:58;11.73;;;5.93;;
73266;SDS011;61495;53.400;7.608;2022-10-30T14:12:41;13.95;;;5.45;;
73266;SDS011;61495;53.400;7.608;2022-10-30T14:15:04;12.48;;;5.85;;
73266;SDS011;61495;53.400;7.608;2022-10-30T14:17:30;9.23;;;4.72;;
73266;SDS011;61495;53.400;7.608;2022-10-30T14:22:31;11.50;;;5.03;;
73266;SDS011;61495;53.400;7.608;2022-10-30T14:27:54;12.35;;;4.85;;
73266;SDS011;61495;53.400;7.608;2022-10-30T14:30:20;10.95;;;4.95;;
73266;SDS011;61495;53.400;7.608;2022-10-30T14:32:54;9.65;;;4.63;;
73266;SDS011;61495;53.400;7.608;2022-10-30T14:35:28;9.82;;;4.13;;
73266;SDS011;61495;53.400;7.608;2022-10-30T14:40:37;13.48;;;4.72;;
73266;SDS011;61495;53.400;7.608;2022-10-30T14:43:13;9.68;;;4.45;;
73266;SDS011;61495;53.400;7.608;2022-10-30T14:45:47;12.15;;;4.97;;
73266;SDS011;61495;53.400;7.608;2022-10-30T14:53:57;8.63;;;4.38;;
73266;SDS011;61495;53.400;7.608;2022-10-30T14:56:47;9.15;;;4.18;;
73266;SDS011;61495;53.400;7.608;2022-10-30T15:01:54;10.55;;;4.60;;
73266;SDS011;61495;53.400;7.608;2022-10-30T15:07:23;8.93;;;4.22;;
73266;SDS011;61495;53.400;7.608;2022-10-30T15:10:36;10.30;;;4.13;;
73266;SDS011;61495;53.400;7.608;2022-10-30T15:12:50;10.15;;;4.70;;
73266;SDS011;61495;53.400;7.608;2022-10-30T15:15:20;9.27;;;3.97;;
73266;SDS011;61495;53.400;7.608;2022-10-30T15:17:46;9.73;;;4.15;;
73266;SDS011;61495;53.400;7.608;2022-10-30T15:22:41;8.85;;;4.43;;
73266;SDS011;61495;53.400;7.608;2022-10-30T15:25:14;11.05;;;5.07;;
73266;SDS011;61495;53.400;7.608;2022-10-30T15:27:44;8.35;;;4.55;;
73266;SDS011;61495;53.400;7.608;2022-10-30T15:30:16;10.68;;;4.65;;
73266;SDS011;61495;53.400;7.608;2022-10-30T15:32:44;9.25;;;4.72;;
73266;SDS011;61495;53.400;7.608;2022-10-30T15:35:14;10.57;;;4.50;;
73266;SDS011;61495;53.400;7.608;2022-10-30T15:38:02;8.45;;;4.30;;
73266;SDS011;61495;53.400;7.608;2022-10-30T15:40:30;12.13;;;5.05;;
73266;SDS011;61495;53.400;7.608;2022-10-30T15:42:58;11.35;;;4.22;;
73266;SDS011;61495;53.400;7.608;2022-10-30T15:45:32;8.90;;;4.20;;
73266;SDS011;61495;53.400;7.608;2022-10-30T15:48:16;7.65;;;4.53;;
73266;SDS011;61495;53.400;7.608;2022-10-30T15:50:57;11.02;;;5.03;;
73266;SDS011;61495;53.400;7.608;2022-10-30T15:53:29;10.68;;;6.13;;
73266;SDS011;61495;53.400;7.608;2022-10-30T15:56:00;12.15;;;6.10;;
73266;SDS011;61495;53.400;7.608;2022-10-30T15:58:26;12.18;;;7.00;;
73266;SDS011;61495;53.400;7.608;2022-10-30T16:00:56;12.93;;;7.07;;
73266;SDS011;61495;53.400;7.608;2022-10-30T16:03:24;13.05;;;7.10;;
73266;SDS011;61495;53.400;7.608;2022-10-30T16:05:50;11.13;;;6.53;;
73266;SDS011;61495;53.400;7.608;2022-10-30T16:08:26;12.88;;;6.53;;
73266;SDS011;61495;53.400;7.608;2022-10-30T16:10:52;11.52;;;5.90;;
73266;SDS011;61495;53.400;7.608;2022-10-30T16:13:21;13.50;;;6.13;;
73266;SDS011;61495;53.400;7.608;2022-10-30T16:15:52;10.02;;;5.63;;
73266;SDS011;61495;53.400;7.608;2022-10-30T16:18:19;10.93;;;6.20;;
73266;SDS011;61495;53.400;7.608;2022-10-30T16:20:50;13.98;;;7.75;;
73266;SDS011;61495;53.400;7.608;2022-10-30T16:23:21;11.93;;;7.00;;
73266;SDS011;61495;53.400;7.608;2022-10-30T16:25:57;12.90;;;6.90;;
73266;SDS011;61495;53.400;7.608;2022-10-30T16:28:24;14.07;;;7.13;;
73266;SDS011;61495;53.400;7.608;2022-10-30T16:30:53;11.45;;;5.80;;
73266;SDS011;61495;53.400;7.608;2022-10-30T16:33:22;11.50;;;6.25;;
73266;SDS011;61495;53.400;7.608;2022-10-30T16:35:51;10.85;;;5.45;;
73266;SDS011;61495;53.400;7.608;2022-10-30T16:38:17;11.98;;;6.30;;
73266;SDS011;61495;53.400;7.608;2022-10-30T16:40:45;14.45;;;6.55;;
73266;SDS011;61495;53.400;7.608;2022-10-30T16:43:30;13.13;;;6.82;;
73266;SDS011;61495;53.400;7.608;2022-10-30T16:48:37;19.10;;;7.45;;
73266;SDS011;61495;53.400;7.608;2022-10-30T16:51:11;10.57;;;6.47;;
73266;SDS011;61495;53.400;7.608;2022-10-30T16:53:40;12.57;;;6.70;;
73266;SDS011;61495;53.400;7.608;2022-10-30T16:56:17;13.73;;;6.68;;
73266;SDS011;61495;53.400;7.608;2022-10-30T16:58:51;13.82;;;5.70;;
73266;SDS011;61495;53.400;7.608;2022-10-30T17:01:21;9.73;;;5.05;;
73266;SDS011;61495;53.400;7.608;2022-10-30T17:03:52;11.52;;;5.32;;
73266;SDS011;61495;53.400;7.608;2022-10-30T17:09:19;9.52;;;5.25;;
73266;SDS011;61495;53.400;7.608;2022-10-30T17:12:12;14.35;;;6.78;;
73266;SDS011;61495;53.400;7.608;2022-10-30T17:14:49;11.65;;;6.63;;
73266;SDS011;61495;53.400;7.608;2022-10-30T17:17:19;12.57;;;7.28;;
73266;SDS011;61495;53.400;7.608;2022-10-30T17:20:34;13.82;;;7.18;;
73266;SDS011;61495;53.400;7.608;2022-10-30T17:22:44;13.35;;;7.30;;
73266;SDS011;61495;53.400;7.608;2022-10-30T17:25:33;13.77;;;7.80;;
73266;SDS011;61495;53.400;7.608;2022-10-30T17:28:00;17.05;;;8.73;;